createdAt,value
2019-01-08T00:00:04.570Z,1006.91
2019-01-08T00:01:04.510Z,1006.97
2019-01-08T00:02:57.285Z,1006.91
2019-01-08T00:03:57.187Z,1006.91
2019-01-08T00:05:49.948Z,1006.85
2019-01-08T00:06:49.877Z,1006.90
2019-01-08T00:08:42.652Z,1006.71
2019-01-08T00:09:42.575Z,1006.68
2019-01-08T00:11:35.371Z,1006.68
2019-01-08T00:12:35.266Z,1006.65
2019-01-08T00:14:28.057Z,1006.57
2019-01-08T00:15:27.983Z,1006.57
2019-01-08T00:17:20.732Z,1006.56
2019-01-08T00:18:20.659Z,1006.50
2019-01-08T00:20:13.424Z,1006.44
2019-01-08T00:21:13.334Z,1006.39
2019-01-08T00:23:06.151Z,1006.36
2019-01-08T00:24:06.062Z,1006.38
2019-01-08T00:25:58.838Z,1006.27
2019-01-08T00:26:58.766Z,1006.31
2019-01-08T00:28:51.537Z,1006.20
2019-01-08T00:29:51.461Z,1006.10
2019-01-08T00:31:44.237Z,1006.06
2019-01-08T00:32:44.148Z,1006.06
2019-01-08T00:34:37.127Z,1006.03
2019-01-08T00:35:36.848Z,1006.06
2019-01-08T00:37:29.745Z,1006.03
2019-01-08T00:38:29.584Z,1005.97
2019-01-08T00:40:22.372Z,1005.98
2019-01-08T00:41:22.297Z,1005.90
2019-01-08T00:43:15.134Z,1005.86
2019-01-08T00:44:14.993Z,1005.82
2019-01-08T00:46:07.758Z,1005.82
2019-01-08T00:47:07.686Z,1005.74
2019-01-08T00:49:00.460Z,1005.78
2019-01-08T00:50:00.442Z,1005.71
2019-01-08T00:51:53.114Z,1005.72
2019-01-08T00:52:53.050Z,1005.69
2019-01-08T00:54:45.811Z,1005.67
2019-01-08T00:55:45.724Z,1005.68
2019-01-08T00:57:38.505Z,1005.56
2019-01-08T00:58:38.445Z,1005.57
2019-01-08T01:00:30.343Z,1005.51
2019-01-08T01:01:30.257Z,1005.47
2019-01-08T01:03:23.026Z,1005.46
2019-01-08T01:04:22.961Z,1005.39
2019-01-08T01:06:15.739Z,1005.38
2019-01-08T01:07:15.657Z,1005.41
2019-01-08T01:09:08.436Z,1005.30
2019-01-08T01:10:08.355Z,1005.27
2019-01-08T01:12:01.147Z,1005.27
2019-01-08T01:13:01.035Z,1005.25
2019-01-08T01:14:53.822Z,1005.22
2019-01-08T01:15:53.752Z,1005.20
2019-01-08T01:17:46.510Z,1005.05
2019-01-08T01:18:46.433Z,1004.96
2019-01-08T01:20:39.206Z,1004.92
2019-01-08T01:21:39.124Z,1004.89
2019-01-08T01:23:31.909Z,1004.80
2019-01-08T01:24:31.819Z,1004.85
2019-01-08T01:26:24.626Z,1004.92
2019-01-08T01:27:24.507Z,1004.79
2019-01-08T01:29:17.278Z,1004.71
2019-01-08T01:30:17.207Z,1004.71
2019-01-08T01:32:09.967Z,1004.66
2019-01-08T01:33:09.880Z,1004.67
2019-01-08T01:35:02.654Z,1004.64
2019-01-08T01:36:02.566Z,1004.60
2019-01-08T01:37:55.401Z,1004.69
2019-01-08T01:38:55.341Z,1004.53
2019-01-08T01:40:48.115Z,1004.48
2019-01-08T01:41:48.034Z,1004.52
2019-01-08T01:43:40.820Z,1004.41
2019-01-08T01:44:40.706Z,1004.28
2019-01-08T01:46:33.480Z,1004.28
2019-01-08T01:47:33.393Z,1004.26
2019-01-08T01:49:26.177Z,1004.20
2019-01-08T01:50:26.109Z,1004.18
2019-01-08T01:52:18.898Z,1004.11
2019-01-08T01:53:18.817Z,1004.21
2019-01-08T01:55:11.580Z,1004.15
2019-01-08T01:57:13.776Z,1003.95
2019-01-08T01:58:13.704Z,1003.93
2019-01-08T02:00:06.459Z,1003.88
2019-01-08T02:01:06.400Z,1004.00
2019-01-08T02:02:59.184Z,1003.93
2019-01-08T02:03:59.104Z,1003.90
2019-01-08T02:05:51.888Z,1003.78
2019-01-08T02:06:51.805Z,1003.69
2019-01-08T02:08:44.556Z,1003.71
2019-01-08T02:09:44.485Z,1003.73
2019-01-08T02:11:37.268Z,1003.71
2019-01-08T02:12:37.174Z,1003.61
2019-01-08T02:14:29.963Z,1003.62
2019-01-08T02:15:29.905Z,1003.63
2019-01-08T02:17:22.691Z,1003.55
2019-01-08T02:18:22.581Z,1003.58
2019-01-08T02:20:15.376Z,1003.66
2019-01-08T02:21:15.286Z,1003.51
2019-01-08T02:23:08.056Z,1003.54
2019-01-08T02:24:07.972Z,1003.57
2019-01-08T02:26:00.769Z,1003.52
2019-01-08T02:27:00.695Z,1003.52
2019-01-08T02:28:53.510Z,1003.58
2019-01-08T02:29:53.423Z,1003.41
2019-01-08T02:31:46.197Z,1003.49
2019-01-08T02:32:46.113Z,1003.62
2019-01-08T02:34:38.896Z,1003.57
2019-01-08T02:35:38.799Z,1003.50
2019-01-08T02:37:31.564Z,1003.38
2019-01-08T02:38:31.472Z,1003.38
2019-01-08T02:40:24.238Z,1003.34
2019-01-08T02:41:24.201Z,1003.21
2019-01-08T02:43:16.921Z,1003.15
2019-01-08T02:44:16.956Z,1003.04
2019-01-08T02:46:09.794Z,1003.14
2019-01-08T02:47:09.556Z,1003.19
2019-01-08T02:49:02.462Z,1003.21
2019-01-08T02:50:02.290Z,1003.22
2019-01-08T02:51:55.103Z,1003.08
2019-01-08T02:52:55.001Z,1003.06
2019-01-08T02:54:47.881Z,1003.10
2019-01-08T02:55:47.689Z,1003.01
2019-01-08T02:57:40.493Z,1003.00
2019-01-08T02:58:40.382Z,1002.85
2019-01-08T03:00:33.142Z,1002.82
2019-01-08T03:01:33.078Z,1002.85
2019-01-08T03:03:25.866Z,1002.76
2019-01-08T03:04:25.769Z,1002.73
2019-01-08T03:06:18.572Z,1002.66
2019-01-08T03:07:18.491Z,1002.59
2019-01-08T03:09:11.255Z,1002.57
2019-01-08T03:10:11.170Z,1002.56
2019-01-08T03:12:04.788Z,1002.49
2019-01-08T03:13:04.716Z,1002.46
2019-01-08T03:14:57.485Z,1002.36
2019-01-08T03:15:57.406Z,1002.34
2019-01-08T03:17:50.195Z,1002.31
2019-01-08T03:18:50.109Z,1002.31
2019-01-08T03:20:42.867Z,1002.23
2019-01-08T03:21:42.818Z,1002.21
2019-01-08T03:23:35.600Z,1002.22
2019-01-08T03:24:35.523Z,1002.19
2019-01-08T03:26:28.291Z,1002.12
2019-01-08T03:27:28.212Z,1002.10
2019-01-08T03:29:21.001Z,1002.14
2019-01-08T03:30:20.916Z,1002.11
2019-01-08T03:32:13.667Z,1002.04
2019-01-08T03:33:13.608Z,1002.00
2019-01-08T03:35:06.371Z,1001.96
2019-01-08T03:36:06.285Z,1001.99
2019-01-08T03:37:59.062Z,1001.93
2019-01-08T03:38:58.965Z,1001.96
2019-01-08T03:40:51.813Z,1001.94
2019-01-08T03:41:51.716Z,1001.91
2019-01-08T03:43:44.566Z,1001.92
2019-01-08T03:44:44.625Z,1001.87
2019-01-08T03:46:37.476Z,1001.78
2019-01-08T03:47:37.414Z,1001.65
2019-01-08T03:49:30.262Z,1001.69
2019-01-08T03:50:30.123Z,1001.72
2019-01-08T03:52:22.895Z,1001.63
2019-01-08T03:53:22.810Z,1001.61
2019-01-08T03:55:15.683Z,1001.59
2019-01-08T03:56:15.556Z,1001.59
2019-01-08T03:58:08.302Z,1001.50
2019-01-08T03:59:08.233Z,1001.48
2019-01-08T04:01:01.025Z,1001.38
2019-01-08T04:02:00.925Z,1001.41
2019-01-08T04:03:53.764Z,1001.33
2019-01-08T04:04:53.680Z,1001.32
2019-01-08T04:06:46.434Z,1001.23
2019-01-08T04:07:46.374Z,1001.16
2019-01-08T04:09:39.180Z,1001.13
2019-01-08T04:10:39.049Z,1001.21
2019-01-08T04:12:31.866Z,1001.19
2019-01-08T04:13:31.800Z,1001.13
2019-01-08T04:15:24.509Z,1001.12
2019-01-08T04:16:24.420Z,1001.07
2019-01-08T04:18:17.197Z,1001.13
2019-01-08T04:19:17.137Z,1001.10
2019-01-08T04:21:09.922Z,1001.12
2019-01-08T04:22:09.830Z,1001.11
2019-01-08T04:24:02.610Z,1001.06
2019-01-08T04:25:02.525Z,1001.10
2019-01-08T04:26:55.325Z,1001.02
2019-01-08T04:27:55.213Z,1000.97
2019-01-08T04:29:50.668Z,1000.88
2019-01-08T04:30:47.890Z,1000.89
2019-01-08T04:32:40.676Z,1000.80
2019-01-08T04:33:40.608Z,1000.79
2019-01-08T04:35:33.370Z,1000.77
2019-01-08T04:36:33.300Z,1000.69
2019-01-08T04:38:26.058Z,1000.69
2019-01-08T04:39:26.015Z,1000.63
2019-01-08T04:41:18.783Z,1000.59
2019-01-08T04:42:18.695Z,1000.54
2019-01-08T04:44:11.451Z,1000.44
2019-01-08T04:45:11.380Z,1000.44
2019-01-08T04:47:04.236Z,1000.36
2019-01-08T04:48:04.101Z,1000.33
2019-01-08T04:49:56.873Z,1000.26
2019-01-08T04:50:56.778Z,1000.21
2019-01-08T04:52:49.608Z,1000.15
2019-01-08T04:53:49.515Z,1000.14
2019-01-08T04:55:42.304Z,1000.00
2019-01-08T04:56:42.217Z,999.85
2019-01-08T04:58:34.977Z,999.88
2019-01-08T04:59:34.902Z,999.83
2019-01-08T05:01:27.754Z,999.73
2019-01-08T05:02:27.660Z,999.76
2019-01-08T05:04:20.425Z,999.66
2019-01-08T05:05:20.355Z,999.65
2019-01-08T05:07:13.117Z,999.56
2019-01-08T05:08:13.039Z,999.59
2019-01-08T05:10:05.795Z,999.57
2019-01-08T05:11:05.722Z,999.58
2019-01-08T05:12:58.492Z,999.45
2019-01-08T05:13:58.404Z,999.47
2019-01-08T05:15:51.203Z,999.57
2019-01-08T05:16:51.108Z,999.55
2019-01-08T05:18:43.869Z,999.50
2019-01-08T05:19:43.800Z,999.53
2019-01-08T05:21:36.566Z,999.54
2019-01-08T05:22:36.488Z,999.54
2019-01-08T05:24:29.262Z,999.50
2019-01-08T05:25:29.184Z,999.47
2019-01-08T05:27:21.955Z,999.53
2019-01-08T05:28:21.869Z,999.42
2019-01-08T05:30:14.624Z,999.36
2019-01-08T05:31:14.558Z,999.25
2019-01-08T05:33:07.331Z,999.15
2019-01-08T05:34:07.252Z,999.24
2019-01-08T05:36:00.025Z,999.26
2019-01-08T05:36:59.944Z,999.12
2019-01-08T05:38:52.726Z,999.10
2019-01-08T05:39:52.656Z,999.09
2019-01-08T05:41:45.854Z,999.04
2019-01-08T05:42:45.340Z,999.01
2019-01-08T05:44:38.083Z,998.97
2019-01-08T05:45:38.013Z,998.94
2019-01-08T05:47:30.793Z,998.92
2019-01-08T05:48:30.714Z,998.93
2019-01-08T05:50:23.508Z,998.90
2019-01-08T05:51:23.407Z,998.87
2019-01-08T05:53:16.176Z,998.95
2019-01-08T05:54:16.095Z,998.89
2019-01-08T05:56:08.875Z,998.85
2019-01-08T05:57:09.550Z,998.77
2019-01-08T05:59:01.538Z,998.78
2019-01-08T06:00:01.514Z,998.76
2019-01-08T06:01:54.242Z,998.71
2019-01-08T06:02:54.162Z,998.68
2019-01-08T06:04:46.941Z,998.65
2019-01-08T06:05:46.956Z,998.67
2019-01-08T06:07:39.621Z,998.62
2019-01-08T06:08:39.547Z,998.64
2019-01-08T06:10:32.343Z,998.60
2019-01-08T06:11:32.205Z,998.61
2019-01-08T06:13:24.981Z,998.45
2019-01-08T06:14:24.899Z,998.52
2019-01-08T06:16:17.738Z,998.48
2019-01-08T06:17:17.585Z,998.43
2019-01-08T06:19:11.145Z,998.43
2019-01-08T06:20:11.054Z,998.44
2019-01-08T06:22:03.829Z,998.44
2019-01-08T06:23:03.746Z,998.34
2019-01-08T06:24:56.509Z,998.33
2019-01-08T06:25:56.438Z,998.20
2019-01-08T06:27:49.195Z,998.22
2019-01-08T06:28:49.109Z,998.21
2019-01-08T06:30:41.880Z,998.04
2019-01-08T06:31:41.805Z,997.95
2019-01-08T06:33:34.575Z,998.01
2019-01-08T06:34:34.490Z,997.95
2019-01-08T06:36:27.253Z,997.94
2019-01-08T06:37:27.163Z,997.92
2019-01-08T06:39:19.927Z,997.86
2019-01-08T06:40:19.858Z,997.85
2019-01-08T06:42:12.611Z,997.79
2019-01-08T06:43:12.541Z,997.76
2019-01-08T06:45:05.280Z,997.78
2019-01-08T06:46:05.234Z,997.66
2019-01-08T06:47:58.853Z,997.71
2019-01-08T06:48:58.862Z,997.71
2019-01-08T06:50:55.998Z,997.64
2019-01-08T06:51:51.467Z,997.68
2019-01-08T06:53:44.362Z,997.65
2019-01-08T06:54:44.187Z,997.62
2019-01-08T06:56:36.913Z,997.51
2019-01-08T06:57:37.098Z,997.59
2019-01-08T06:59:29.593Z,997.50
2019-01-08T07:00:33.436Z,997.48
2019-01-08T07:02:22.286Z,997.47
2019-01-08T07:03:22.204Z,997.39
2019-01-08T07:05:14.991Z,997.39
2019-01-08T07:06:14.904Z,997.45
2019-01-08T07:08:07.699Z,997.39
2019-01-08T07:09:07.624Z,997.43
2019-01-08T07:11:00.363Z,997.25
2019-01-08T07:12:00.279Z,997.25
2019-01-08T07:13:53.067Z,997.14
2019-01-08T07:14:52.973Z,997.12
2019-01-08T07:16:45.817Z,997.08
2019-01-08T07:17:45.748Z,997.06
2019-01-08T07:19:38.534Z,997.00
2019-01-08T07:20:38.449Z,996.93
2019-01-08T07:22:31.214Z,996.90
2019-01-08T07:23:31.131Z,996.99
2019-01-08T07:25:23.917Z,996.99
2019-01-08T07:26:23.822Z,996.94
2019-01-08T07:28:16.593Z,996.89
2019-01-08T07:29:16.505Z,996.70
2019-01-08T07:31:09.269Z,996.78
2019-01-08T07:32:09.195Z,996.86
2019-01-08T07:34:01.960Z,996.75
2019-01-08T07:35:01.866Z,996.74
2019-01-08T07:36:54.629Z,996.57
2019-01-08T07:37:54.549Z,996.57
2019-01-08T07:39:47.318Z,996.52
2019-01-08T07:40:47.233Z,996.46
2019-01-08T07:42:40.010Z,996.46
2019-01-08T07:43:39.941Z,996.37
2019-01-08T07:45:32.714Z,996.28
2019-01-08T07:46:32.629Z,996.23
2019-01-08T07:48:25.406Z,996.09
2019-01-08T07:49:25.320Z,996.24
2019-01-08T07:51:18.071Z,996.26
2019-01-08T07:52:17.997Z,996.16
2019-01-08T07:54:10.767Z,996.22
2019-01-08T07:55:10.681Z,996.17
2019-01-08T07:57:03.434Z,996.08
2019-01-08T07:58:03.401Z,996.04
2019-01-08T07:59:56.136Z,996.06
2019-01-08T08:00:56.037Z,995.97
2019-01-08T08:02:48.809Z,996.02
2019-01-08T08:03:48.717Z,995.93
2019-01-08T08:05:41.475Z,995.97
2019-01-08T08:06:41.403Z,995.81
2019-01-08T08:08:33.295Z,995.93
2019-01-08T08:09:33.212Z,995.84
2019-01-08T08:11:25.967Z,995.80
2019-01-08T08:12:25.899Z,995.78
2019-01-08T08:14:18.685Z,995.86
2019-01-08T08:15:18.574Z,995.82
2019-01-08T08:17:11.319Z,995.83
2019-01-08T08:18:11.259Z,995.77
2019-01-08T08:20:04.014Z,995.81
2019-01-08T08:21:03.947Z,995.77
2019-01-08T08:22:56.703Z,995.74
2019-01-08T08:23:56.608Z,995.72
2019-01-08T08:25:49.373Z,995.63
2019-01-08T08:26:49.299Z,995.63
2019-01-08T08:28:42.064Z,995.54
2019-01-08T08:29:41.980Z,995.55
2019-01-08T08:31:34.727Z,995.48
2019-01-08T08:32:34.651Z,995.51
2019-01-08T08:34:27.427Z,995.47
2019-01-08T08:35:27.349Z,995.33
2019-01-08T08:37:20.107Z,995.30
2019-01-08T08:38:20.060Z,995.34
2019-01-08T08:40:12.795Z,995.27
2019-01-08T08:41:12.714Z,995.22
2019-01-08T08:43:05.492Z,995.13
2019-01-08T08:44:05.417Z,995.10
2019-01-08T08:45:58.160Z,995.12
2019-01-08T08:46:58.086Z,995.11
2019-01-08T08:48:50.862Z,995.07
2019-01-08T08:49:50.789Z,995.05
2019-01-08T08:51:43.551Z,994.86
2019-01-08T08:52:43.474Z,994.90
2019-01-08T08:54:36.250Z,994.85
2019-01-08T08:55:36.167Z,994.85
2019-01-08T08:57:28.922Z,994.88
2019-01-08T08:58:28.848Z,994.68
2019-01-08T09:00:21.614Z,994.81
2019-01-08T09:01:21.528Z,994.76
2019-01-08T09:03:14.324Z,994.65
2019-01-08T09:04:14.223Z,994.67
2019-01-08T09:06:06.986Z,994.65
2019-01-08T09:07:06.912Z,994.60
2019-01-08T09:08:59.683Z,994.59
2019-01-08T09:09:59.598Z,994.57
2019-01-08T09:11:52.362Z,994.45
2019-01-08T09:12:52.282Z,994.45
2019-01-08T09:14:45.133Z,994.49
2019-01-08T09:15:45.038Z,994.45
2019-01-08T09:17:37.802Z,994.49
2019-01-08T09:18:37.743Z,994.42
2019-01-08T09:20:30.503Z,994.40
2019-01-08T09:21:30.428Z,994.40
2019-01-08T09:23:23.709Z,994.33
2019-01-08T09:24:23.605Z,994.30
2019-01-08T09:26:16.377Z,994.34
2019-01-08T09:27:16.310Z,994.24
2019-01-08T09:29:09.124Z,994.18
2019-01-08T09:30:08.971Z,994.14
2019-01-08T09:32:01.725Z,994.11
2019-01-08T09:33:01.659Z,994.11
2019-01-08T09:34:54.417Z,994.05
2019-01-08T09:35:54.332Z,994.06
2019-01-08T09:37:47.099Z,994.07
2019-01-08T09:38:47.023Z,993.96
2019-01-08T09:40:39.803Z,993.96
2019-01-08T09:41:39.723Z,993.96
2019-01-08T09:43:32.496Z,993.96
2019-01-08T09:44:32.429Z,993.88
2019-01-08T09:46:25.190Z,993.88
2019-01-08T09:47:25.103Z,993.82
2019-01-08T09:49:17.913Z,993.88
2019-01-08T09:50:17.809Z,993.77
2019-01-08T09:52:10.579Z,993.79
2019-01-08T09:53:10.490Z,993.79
2019-01-08T09:55:03.325Z,993.78
2019-01-08T09:56:03.218Z,993.76
2019-01-08T09:57:55.976Z,993.72
2019-01-08T09:58:55.903Z,993.68
2019-01-08T10:00:48.819Z,993.65
2019-01-08T10:01:48.698Z,993.48
2019-01-08T10:03:41.458Z,993.50
2019-01-08T10:04:41.386Z,993.54
2019-01-08T10:06:34.156Z,993.43
2019-01-08T10:07:34.066Z,993.42
2019-01-08T10:09:26.839Z,993.35
2019-01-08T10:10:26.748Z,993.32
2019-01-08T10:12:19.514Z,993.31
2019-01-08T10:13:19.435Z,993.23
2019-01-08T10:15:12.217Z,993.33
2019-01-08T10:16:12.134Z,993.14
2019-01-08T10:18:04.889Z,993.21
2019-01-08T10:19:04.813Z,993.21
2019-01-08T10:20:57.766Z,993.13
2019-01-08T10:21:57.526Z,993.06
2019-01-08T10:23:50.269Z,993.11
2019-01-08T10:24:50.199Z,993.01
2019-01-08T10:26:42.975Z,993.08
2019-01-08T10:27:42.883Z,993.07
2019-01-08T10:29:35.691Z,992.95
2019-01-08T10:30:35.572Z,992.97
2019-01-08T10:32:28.366Z,992.87
2019-01-08T10:33:28.262Z,992.94
2019-01-08T10:35:21.022Z,992.83
2019-01-08T10:36:20.942Z,992.90
2019-01-08T10:38:13.694Z,992.83
2019-01-08T10:39:13.628Z,992.79
2019-01-08T10:41:06.406Z,992.80
2019-01-08T10:42:06.323Z,992.78
2019-01-08T10:43:59.084Z,992.72
2019-01-08T10:44:59.017Z,992.69
2019-01-08T10:46:51.792Z,992.64
2019-01-08T10:47:51.712Z,992.65
2019-01-08T10:49:44.476Z,992.56
2019-01-08T10:50:44.398Z,992.66
2019-01-08T10:52:37.158Z,992.43
2019-01-08T10:53:37.088Z,992.66
2019-01-08T10:55:29.882Z,992.33
2019-01-08T10:56:29.777Z,992.52
2019-01-08T10:58:22.623Z,992.53
2019-01-08T10:59:22.460Z,992.41
2019-01-08T11:01:15.231Z,992.34
2019-01-08T11:02:15.145Z,992.44
2019-01-08T11:04:07.904Z,992.43
2019-01-08T11:05:07.840Z,992.47
2019-01-08T11:07:00.657Z,992.44
2019-01-08T11:08:00.556Z,992.33
2019-01-08T11:09:53.332Z,992.33
2019-01-08T11:10:53.249Z,992.30
2019-01-08T11:12:46.011Z,992.37
2019-01-08T11:13:45.934Z,992.41
2019-01-08T11:15:38.702Z,992.33
2019-01-08T11:16:38.620Z,992.30
2019-01-08T11:18:31.371Z,992.23
2019-01-08T11:19:31.300Z,992.31
2019-01-08T11:21:24.060Z,992.22
2019-01-08T11:22:25.272Z,992.18
2019-01-08T11:24:16.745Z,992.14
2019-01-08T11:25:16.674Z,992.15
2019-01-08T11:27:09.467Z,992.12
2019-01-08T11:28:09.390Z,992.16
2019-01-08T11:30:02.167Z,992.10
2019-01-08T11:31:02.083Z,992.11
2019-01-08T11:32:54.950Z,992.07
2019-01-08T11:33:54.778Z,991.98
2019-01-08T11:35:47.542Z,991.89
2019-01-08T11:36:47.461Z,992.04
2019-01-08T11:38:40.230Z,991.78
2019-01-08T11:39:40.157Z,991.96
2019-01-08T11:41:32.920Z,991.99
2019-01-08T11:42:32.840Z,992.01
2019-01-08T11:44:25.623Z,991.96
2019-01-08T11:45:25.526Z,991.86
2019-01-08T11:47:18.305Z,991.81
2019-01-08T11:48:18.229Z,991.94
2019-01-08T11:50:10.979Z,991.83
2019-01-08T11:51:10.909Z,991.89
2019-01-08T11:53:03.965Z,991.96
2019-01-08T11:54:03.877Z,991.91
2019-01-08T11:55:56.641Z,991.93
2019-01-08T11:56:56.557Z,991.84
2019-01-08T11:58:49.311Z,991.83
2019-01-08T11:59:49.232Z,991.88
2019-01-08T12:01:41.992Z,991.81
2019-01-08T12:02:47.722Z,991.75
2019-01-08T12:04:34.678Z,991.73
2019-01-08T12:05:34.605Z,991.84
2019-01-08T12:07:31.221Z,991.80
2019-01-08T12:08:27.289Z,991.77
2019-01-08T12:10:20.065Z,991.82
2019-01-08T12:11:20.004Z,991.83
2019-01-08T12:13:12.748Z,991.77
2019-01-08T12:14:12.664Z,991.77
2019-01-08T12:16:05.440Z,991.74
2019-01-08T12:17:05.347Z,991.73
2019-01-08T12:18:58.124Z,991.73
2019-01-08T12:19:58.047Z,991.66
2019-01-08T12:21:50.805Z,991.70
2019-01-08T12:22:50.716Z,991.73
2019-01-08T12:24:44.134Z,991.62
2019-01-08T12:25:43.399Z,991.71
2019-01-08T12:27:36.224Z,991.64
2019-01-08T12:28:36.081Z,991.63
2019-01-08T12:30:28.832Z,991.69
2019-01-08T12:31:28.811Z,991.68
2019-01-08T12:33:21.531Z,991.60
2019-01-08T12:34:21.445Z,991.67
2019-01-08T12:36:14.245Z,991.62
2019-01-08T12:37:14.171Z,991.56
2019-01-08T12:39:06.957Z,991.61
2019-01-08T12:40:06.844Z,991.64
2019-01-08T12:41:59.714Z,991.75
2019-01-08T12:42:59.539Z,991.69
2019-01-08T12:44:52.296Z,991.75
2019-01-08T12:45:52.235Z,991.68
2019-01-08T12:47:44.998Z,991.61
2019-01-08T12:48:44.913Z,991.73
2019-01-08T12:50:37.671Z,991.77
2019-01-08T12:51:37.599Z,991.75
2019-01-08T12:53:30.383Z,991.77
2019-01-08T12:54:30.292Z,991.76
2019-01-08T12:56:23.074Z,991.76
2019-01-08T12:57:22.986Z,991.76
2019-01-08T12:59:15.745Z,991.81
2019-01-08T13:00:15.692Z,991.72
2019-01-08T13:02:14.555Z,991.76
2019-01-08T13:03:08.351Z,991.87
2019-01-08T13:05:01.110Z,991.70
2019-01-08T13:06:01.035Z,991.77
2019-01-08T13:07:53.810Z,991.76
2019-01-08T13:08:53.724Z,991.80
2019-01-08T13:10:46.559Z,991.85
2019-01-08T13:11:46.586Z,991.81
2019-01-08T13:13:39.257Z,991.80
2019-01-08T13:14:39.177Z,991.75
2019-01-08T13:16:31.945Z,991.77
2019-01-08T13:17:31.865Z,991.68
2019-01-08T13:19:24.637Z,991.77
2019-01-08T13:20:24.569Z,991.72
2019-01-08T13:22:17.360Z,991.70
2019-01-08T13:23:17.244Z,991.79
2019-01-08T13:25:10.002Z,991.82
2019-01-08T13:26:09.932Z,991.81
2019-01-08T13:28:02.712Z,991.80
2019-01-08T13:29:02.616Z,991.84
2019-01-08T13:30:55.506Z,991.86
2019-01-08T13:31:55.350Z,991.81
2019-01-08T13:33:48.109Z,991.92
2019-01-08T13:34:48.025Z,991.91
2019-01-08T13:36:40.787Z,991.97
2019-01-08T13:37:40.699Z,991.88
2019-01-08T13:39:33.460Z,992.00
2019-01-08T13:40:33.388Z,991.91
2019-01-08T13:42:26.163Z,992.02
2019-01-08T13:43:26.069Z,991.93
2019-01-08T13:45:18.842Z,991.97
2019-01-08T13:46:18.772Z,992.01
2019-01-08T13:48:11.563Z,991.96
2019-01-08T13:49:11.508Z,991.94
2019-01-08T13:51:04.246Z,992.05
2019-01-08T13:52:04.179Z,992.00
2019-01-08T13:53:56.933Z,992.07
2019-01-08T13:54:56.851Z,992.09
2019-01-08T13:56:49.619Z,992.13
2019-01-08T13:57:49.549Z,992.13
2019-01-08T13:59:42.322Z,992.10
2019-01-08T14:00:42.244Z,992.03
2019-01-08T14:02:35.029Z,992.16
2019-01-08T14:03:34.933Z,992.17
2019-01-08T14:05:27.710Z,992.13
2019-01-08T14:06:27.622Z,992.23
2019-01-08T14:08:20.396Z,992.14
2019-01-08T14:09:20.310Z,992.18
2019-01-08T14:11:13.081Z,992.20
2019-01-08T14:12:13.012Z,992.24
2019-01-08T14:14:05.786Z,992.22
2019-01-08T14:15:05.713Z,992.25
2019-01-08T14:16:57.613Z,992.12
2019-01-08T14:17:57.530Z,992.26
2019-01-08T14:19:50.489Z,992.19
2019-01-08T14:20:50.228Z,992.31
2019-01-08T14:22:42.996Z,992.15
2019-01-08T14:23:42.912Z,992.30
2019-01-08T14:25:35.720Z,992.30
2019-01-08T14:26:35.671Z,992.37
2019-01-08T14:28:28.410Z,992.38
2019-01-08T14:29:28.328Z,992.39
2019-01-08T14:31:21.085Z,992.41
2019-01-08T14:32:21.011Z,992.40
2019-01-08T14:34:13.984Z,992.37
2019-01-08T14:35:13.904Z,992.37
2019-01-08T14:37:06.678Z,992.43
2019-01-08T14:38:06.617Z,992.37
2019-01-08T14:39:59.378Z,992.42
2019-01-08T14:40:59.291Z,992.38
2019-01-08T14:42:52.060Z,992.38
2019-01-08T14:43:51.975Z,992.36
2019-01-08T14:45:44.757Z,992.44
2019-01-08T14:46:44.666Z,992.46
2019-01-08T14:48:37.424Z,992.45
2019-01-08T14:49:37.350Z,992.40
2019-01-08T14:51:30.108Z,992.58
2019-01-08T14:52:30.035Z,992.49
2019-01-08T14:54:22.810Z,992.54
2019-01-08T14:55:22.723Z,992.51
2019-01-08T14:57:15.497Z,992.46
2019-01-08T14:58:15.450Z,992.53
2019-01-08T15:00:08.181Z,992.51
2019-01-08T15:01:08.103Z,992.48
2019-01-08T15:03:00.871Z,992.53
2019-01-08T15:04:00.800Z,992.45
2019-01-08T15:05:53.549Z,992.49
2019-01-08T15:06:53.477Z,992.45
2019-01-08T15:08:46.260Z,992.45
2019-01-08T15:09:46.177Z,992.47
2019-01-08T15:11:38.914Z,992.47
2019-01-08T15:12:38.861Z,992.54
2019-01-08T15:14:31.622Z,992.46
2019-01-08T15:15:31.539Z,992.48
2019-01-08T15:17:24.279Z,992.50
2019-01-08T15:18:24.212Z,992.50
2019-01-08T15:20:16.998Z,992.50
2019-01-08T15:21:16.911Z,992.46
2019-01-08T15:23:09.698Z,992.51
2019-01-08T15:24:09.618Z,992.52
2019-01-08T15:26:02.379Z,992.54
2019-01-08T15:27:02.317Z,992.58
2019-01-08T15:28:55.079Z,992.59
2019-01-08T15:29:55.026Z,992.55
2019-01-08T15:31:47.777Z,992.53
2019-01-08T15:32:47.705Z,992.62
2019-01-08T15:34:40.595Z,992.61
2019-01-08T15:35:40.437Z,992.58
2019-01-08T15:37:33.211Z,992.54
2019-01-08T15:38:33.135Z,992.62
2019-01-08T15:40:25.949Z,992.43
2019-01-08T15:41:25.835Z,992.65
2019-01-08T15:43:18.605Z,992.58
2019-01-08T15:44:18.517Z,992.54
2019-01-08T15:46:11.305Z,992.53
2019-01-08T15:47:11.210Z,992.50
2019-01-08T15:49:03.979Z,992.57
2019-01-08T15:50:03.904Z,992.56
2019-01-08T15:51:57.208Z,992.57
2019-01-08T15:52:57.098Z,992.47
2019-01-08T15:54:49.912Z,992.50
2019-01-08T15:55:49.782Z,992.42
2019-01-08T15:57:42.562Z,992.53
2019-01-08T15:59:08.378Z,992.58
2019-01-08T16:00:08.301Z,992.53
2019-01-08T16:02:01.045Z,992.61
2019-01-08T16:03:07.264Z,992.51
2019-01-08T16:04:53.731Z,992.56
2019-01-08T16:05:53.652Z,992.60
2019-01-08T16:07:46.418Z,992.64
2019-01-08T16:08:46.377Z,992.59
2019-01-08T16:10:39.149Z,992.64
2019-01-08T16:11:39.062Z,992.60
2019-01-08T16:13:31.873Z,992.59
2019-01-08T16:14:31.752Z,992.58
2019-01-08T16:16:24.527Z,992.61
2019-01-08T16:17:24.438Z,992.71
2019-01-08T16:19:17.205Z,992.68
2019-01-08T16:20:17.187Z,992.68
2019-01-08T16:22:09.881Z,992.79
2019-01-08T16:23:09.814Z,992.82
2019-01-08T16:25:02.573Z,993.04
2019-01-08T16:26:02.483Z,992.99
2019-01-08T16:27:55.273Z,993.00
2019-01-08T16:28:55.193Z,992.99
2019-01-08T16:30:47.971Z,993.01
2019-01-08T16:31:47.885Z,993.03
2019-01-08T16:33:40.655Z,993.01
2019-01-08T16:34:40.592Z,993.09
2019-01-08T16:36:33.357Z,993.12
2019-01-08T16:37:33.272Z,993.02
2019-01-08T16:39:26.030Z,993.08
2019-01-08T16:40:25.946Z,993.01
2019-01-08T16:42:19.223Z,993.03
2019-01-08T16:43:19.152Z,993.06
2019-01-08T16:45:11.908Z,993.05
2019-01-08T16:46:11.822Z,992.99
2019-01-08T16:48:04.570Z,993.13
2019-01-08T16:49:04.500Z,993.03
2019-01-08T16:50:57.278Z,993.17
2019-01-08T16:51:57.196Z,993.18
2019-01-08T16:53:49.966Z,993.19
2019-01-08T16:54:49.889Z,993.18
2019-01-08T16:56:42.685Z,993.31
2019-01-08T16:57:42.583Z,993.21
2019-01-08T16:59:35.352Z,993.19
2019-01-08T17:00:35.267Z,993.24
2019-01-08T17:02:28.031Z,993.23
2019-01-08T17:03:27.953Z,993.19
2019-01-08T17:05:20.736Z,993.18
2019-01-08T17:06:20.656Z,993.23
2019-01-08T17:08:13.403Z,993.24
2019-01-08T17:09:13.325Z,993.28
2019-01-08T17:11:06.171Z,993.27
2019-01-08T17:12:06.026Z,993.30
2019-01-08T17:13:58.779Z,993.35
2019-01-08T17:14:58.698Z,993.41
2019-01-08T17:16:51.477Z,993.40
2019-01-08T17:17:51.385Z,993.44
2019-01-08T17:19:44.159Z,993.41
2019-01-08T17:20:44.105Z,993.46
2019-01-08T17:22:36.898Z,993.36
2019-01-08T17:23:36.805Z,993.49
2019-01-08T17:25:29.546Z,993.56
2019-01-08T17:26:29.471Z,993.50
2019-01-08T17:28:22.232Z,993.53
2019-01-08T17:29:22.221Z,993.55
2019-01-08T17:31:14.928Z,993.54
2019-01-08T17:32:14.845Z,993.56
2019-01-08T17:34:07.644Z,993.57
2019-01-08T17:35:07.578Z,993.60
2019-01-08T17:37:00.327Z,993.65
2019-01-08T17:38:00.263Z,993.67
2019-01-08T17:39:53.032Z,993.66
2019-01-08T17:40:52.944Z,993.66
2019-01-08T17:42:45.688Z,993.70
2019-01-08T17:43:45.612Z,993.70
2019-01-08T17:45:38.371Z,993.72
2019-01-08T17:46:38.353Z,993.71
2019-01-08T17:48:31.048Z,993.72